sensor_id;sensor_type;location;lat;lon;timestamp;P1;durP1;ratioP1;P2;durP2;ratioP2
13012;SDS011;22580;57.670;12.006;2023-08-30T00:02:22;0.30;;;0.30;;
13012;SDS011;22580;57.670;12.006;2023-08-30T00:04:49;0.25;;;0.25;;
13012;SDS011;22580;57.670;12.006;2023-08-30T00:07:16;0.35;;;0.35;;
13012;SDS011;22580;57.670;12.006;2023-08-30T00:09:43;0.38;;;0.38;;
13012;SDS011;22580;57.670;12.006;2023-08-30T00:12:10;0.50;;;0.50;;
13012;SDS011;22580;57.670;12.006;2023-08-30T00:14:36;0.30;;;0.30;;
13012;SDS011;22580;57.670;12.006;2023-08-30T00:17:03;0.40;;;0.40;;
13012;SDS011;22580;57.670;12.006;2023-08-30T00:19:40;0.30;;;0.30;;
13012;SDS011;22580;57.670;12.006;2023-08-30T00:22:07;0.20;;;0.20;;
13012;SDS011;22580;57.670;12.006;2023-08-30T00:24:34;0.30;;;0.30;;
13012;SDS011;22580;57.670;12.006;2023-08-30T00:27:01;0.20;;;0.20;;
13012;SDS011;22580;57.670;12.006;2023-08-30T00:29:31;0.20;;;0.20;;
13012;SDS011;22580;57.670;12.006;2023-08-30T00:31:58;0.20;;;0.20;;
13012;SDS011;22580;57.670;12.006;2023-08-30T00:34:25;0.30;;;0.30;;
13012;SDS011;22580;57.670;12.006;2023-08-30T00:36:54;0.10;;;0.10;;
13012;SDS011;22580;57.670;12.006;2023-08-30T00:39:21;0.10;;;0.10;;
13012;SDS011;22580;57.670;12.006;2023-08-30T00:41:48;0.22;;;0.22;;
13012;SDS011;22580;57.670;12.006;2023-08-30T00:44:15;0.20;;;0.20;;
13012;SDS011;22580;57.670;12.006;2023-08-30T00:46:43;0.10;;;0.10;;
13012;SDS011;22580;57.670;12.006;2023-08-30T00:49:10;0.20;;;0.15;;
13012;SDS011;22580;57.670;12.006;2023-08-30T00:51:37;0.10;;;0.10;;
13012;SDS011;22580;57.670;12.006;2023-08-30T00:54:05;0.10;;;0.10;;
13012;SDS011;22580;57.670;12.006;2023-08-30T00:56:33;0.10;;;0.10;;
13012;SDS011;22580;57.670;12.006;2023-08-30T00:59:00;0.10;;;0.10;;
13012;SDS011;22580;57.670;12.006;2023-08-30T01:01:27;0.10;;;0.10;;
13012;SDS011;22580;57.670;12.006;2023-08-30T01:03:54;0.20;;;0.20;;
13012;SDS011;22580;57.670;12.006;2023-08-30T01:06:21;0.10;;;0.10;;
13012;SDS011;22580;57.670;12.006;2023-08-30T01:08:48;0.10;;;0.10;;
13012;SDS011;22580;57.670;12.006;2023-08-30T01:11:18;0.05;;;0.05;;
13012;SDS011;22580;57.670;12.006;2023-08-30T01:13:53;0.20;;;0.20;;
13012;SDS011;22580;57.670;12.006;2023-08-30T01:16:22;0.00;;;0.00;;
13012;SDS011;22580;57.670;12.006;2023-08-30T01:18:50;0.00;;;0.00;;
13012;SDS011;22580;57.670;12.006;2023-08-30T01:21:23;0.10;;;0.10;;
13012;SDS011;22580;57.670;12.006;2023-08-30T01:23:59;0.10;;;0.10;;
13012;SDS011;22580;57.670;12.006;2023-08-30T01:26:35;0.10;;;0.10;;
13012;SDS011;22580;57.670;12.006;2023-08-30T01:29:12;0.13;;;0.13;;
13012;SDS011;22580;57.670;12.006;2023-08-30T01:31:40;0.10;;;0.10;;
13012;SDS011;22580;57.670;12.006;2023-08-30T01:34:09;0.20;;;0.20;;
13012;SDS011;22580;57.670;12.006;2023-08-30T01:36:36;0.10;;;0.10;;
13012;SDS011;22580;57.670;12.006;2023-08-30T01:39:03;0.10;;;0.10;;
13012;SDS011;22580;57.670;12.006;2023-08-30T01:41:31;0.10;;;0.10;;
13012;SDS011;22580;57.670;12.006;2023-08-30T01:44:01;0.20;;;0.20;;
13012;SDS011;22580;57.670;12.006;2023-08-30T01:46:32;0.10;;;0.10;;
13012;SDS011;22580;57.670;12.006;2023-08-30T01:49:00;0.10;;;0.10;;
13012;SDS011;22580;57.670;12.006;2023-08-30T01:51:29;0.10;;;0.10;;
13012;SDS011;22580;57.670;12.006;2023-08-30T01:53:56;0.10;;;0.10;;
13012;SDS011;22580;57.670;12.006;2023-08-30T01:56:24;0.15;;;0.10;;
13012;SDS011;22580;57.670;12.006;2023-08-30T01:58:51;0.17;;;0.17;;
13012;SDS011;22580;57.670;12.006;2023-08-30T02:01:18;0.10;;;0.10;;
13012;SDS011;22580;57.670;12.006;2023-08-30T02:03:46;0.10;;;0.10;;
13012;SDS011;22580;57.670;12.006;2023-08-30T02:06:14;0.10;;;0.10;;
13012;SDS011;22580;57.670;12.006;2023-08-30T02:08:50;0.10;;;0.10;;
13012;SDS011;22580;57.670;12.006;2023-08-30T02:11:22;0.10;;;0.10;;
13012;SDS011;22580;57.670;12.006;2023-08-30T02:13:52;0.20;;;0.20;;
13012;SDS011;22580;57.670;12.006;2023-08-30T02:16:20;0.20;;;0.20;;
13012;SDS011;22580;57.670;12.006;2023-08-30T02:18:51;0.20;;;0.20;;
13012;SDS011;22580;57.670;12.006;2023-08-30T02:21:18;0.20;;;0.20;;
13012;SDS011;22580;57.670;12.006;2023-08-30T02:23:49;0.20;;;0.20;;
13012;SDS011;22580;57.670;12.006;2023-08-30T02:26:17;0.20;;;0.20;;
13012;SDS011;22580;57.670;12.006;2023-08-30T02:28:45;0.20;;;0.20;;
13012;SDS011;22580;57.670;12.006;2023-08-30T02:31:12;0.20;;;0.20;;
13012;SDS011;22580;57.670;12.006;2023-08-30T02:33:39;0.22;;;0.22;;
13012;SDS011;22580;57.670;12.006;2023-08-30T02:36:08;0.20;;;0.20;;
13012;SDS011;22580;57.670;12.006;2023-08-30T02:38:41;0.22;;;0.22;;
13012;SDS011;22580;57.670;12.006;2023-08-30T02:41:08;0.20;;;0.20;;
13012;SDS011;22580;57.670;12.006;2023-08-30T02:43:35;0.25;;;0.25;;
13012;SDS011;22580;57.670;12.006;2023-08-30T02:46:03;0.25;;;0.25;;
13012;SDS011;22580;57.670;12.006;2023-08-30T02:48:30;0.20;;;0.20;;
13012;SDS011;22580;57.670;12.006;2023-08-30T02:50:58;0.20;;;0.20;;
13012;SDS011;22580;57.670;12.006;2023-08-30T02:53:28;0.30;;;0.30;;
13012;SDS011;22580;57.670;12.006;2023-08-30T02:55:55;0.20;;;0.20;;
13012;SDS011;22580;57.670;12.006;2023-08-30T02:58:22;0.10;;;0.10;;
13012;SDS011;22580;57.670;12.006;2023-08-30T03:00:49;0.30;;;0.30;;
13012;SDS011;22580;57.670;12.006;2023-08-30T03:03:16;0.20;;;0.15;;
13012;SDS011;22580;57.670;12.006;2023-08-30T03:05:43;0.20;;;0.20;;
13012;SDS011;22580;57.670;12.006;2023-08-30T03:08:10;0.10;;;0.10;;
13012;SDS011;22580;57.670;12.006;2023-08-30T03:10:39;0.10;;;0.10;;
13012;SDS011;22580;57.670;12.006;2023-08-30T03:13:08;0.10;;;0.10;;
13012;SDS011;22580;57.670;12.006;2023-08-30T03:15:35;0.10;;;0.10;;
13012;SDS011;22580;57.670;12.006;2023-08-30T03:18:02;0.13;;;0.13;;
13012;SDS011;22580;57.670;12.006;2023-08-30T03:20:29;0.10;;;0.10;;
13012;SDS011;22580;57.670;12.006;2023-08-30T03:22:56;0.10;;;0.10;;
13012;SDS011;22580;57.670;12.006;2023-08-30T03:25:24;0.05;;;0.05;;
13012;SDS011;22580;57.670;12.006;2023-08-30T03:27:52;0.10;;;0.10;;
13012;SDS011;22580;57.670;12.006;2023-08-30T03:30:19;0.13;;;0.13;;
13012;SDS011;22580;57.670;12.006;2023-08-30T03:32:48;0.20;;;0.20;;
13012;SDS011;22580;57.670;12.006;2023-08-30T03:35:16;0.22;;;0.22;;
13012;SDS011;22580;57.670;12.006;2023-08-30T03:37:45;0.15;;;0.15;;
13012;SDS011;22580;57.670;12.006;2023-08-30T03:40:12;0.47;;;0.40;;
13012;SDS011;22580;57.670;12.006;2023-08-30T03:42:39;0.22;;;0.22;;
13012;SDS011;22580;57.670;12.006;2023-08-30T03:45:09;0.10;;;0.10;;
13012;SDS011;22580;57.670;12.006;2023-08-30T03:47:36;0.77;;;0.20;;
13012;SDS011;22580;57.670;12.006;2023-08-30T03:50:03;0.70;;;0.20;;
13012;SDS011;22580;57.670;12.006;2023-08-30T03:52:31;0.30;;;0.30;;
13012;SDS011;22580;57.670;12.006;2023-08-30T03:54:58;0.20;;;0.20;;
13012;SDS011;22580;57.670;12.006;2023-08-30T03:57:26;0.45;;;0.40;;
13012;SDS011;22580;57.670;12.006;2023-08-30T03:59:53;0.30;;;0.30;;
13012;SDS011;22580;57.670;12.006;2023-08-30T04:02:21;0.20;;;0.20;;
13012;SDS011;22580;57.670;12.006;2023-08-30T04:04:48;0.20;;;0.20;;
13012;SDS011;22580;57.670;12.006;2023-08-30T04:07:15;0.25;;;0.25;;
13012;SDS011;22580;57.670;12.006;2023-08-30T04:09:42;0.20;;;0.20;;
13012;SDS011;22580;57.670;12.006;2023-08-30T04:12:09;0.30;;;0.30;;
13012;SDS011;22580;57.670;12.006;2023-08-30T04:14:36;0.32;;;0.30;;
13012;SDS011;22580;57.670;12.006;2023-08-30T04:17:03;0.30;;;0.30;;
13012;SDS011;22580;57.670;12.006;2023-08-30T04:19:32;0.30;;;0.30;;
13012;SDS011;22580;57.670;12.006;2023-08-30T04:21:59;0.30;;;0.30;;
13012;SDS011;22580;57.670;12.006;2023-08-30T04:24:26;0.20;;;0.20;;
13012;SDS011;22580;57.670;12.006;2023-08-30T04:26:53;0.28;;;0.28;;
13012;SDS011;22580;57.670;12.006;2023-08-30T04:29:20;0.20;;;0.20;;
13012;SDS011;22580;57.670;12.006;2023-08-30T04:31:47;0.20;;;0.17;;
13012;SDS011;22580;57.670;12.006;2023-08-30T04:34:14;0.10;;;0.10;;
13012;SDS011;22580;57.670;12.006;2023-08-30T04:36:43;0.15;;;0.15;;
13012;SDS011;22580;57.670;12.006;2023-08-30T04:39:12;0.17;;;0.17;;
13012;SDS011;22580;57.670;12.006;2023-08-30T04:41:39;0.10;;;0.10;;
13012;SDS011;22580;57.670;12.006;2023-08-30T04:44:06;0.10;;;0.10;;
13012;SDS011;22580;57.670;12.006;2023-08-30T04:46:33;0.10;;;0.10;;
13012;SDS011;22580;57.670;12.006;2023-08-30T04:49:00;0.30;;;0.30;;
13012;SDS011;22580;57.670;12.006;2023-08-30T04:51:27;0.30;;;0.30;;
13012;SDS011;22580;57.670;12.006;2023-08-30T04:53:59;0.32;;;0.30;;
13012;SDS011;22580;57.670;12.006;2023-08-30T04:56:28;0.95;;;0.40;;
13012;SDS011;22580;57.670;12.006;2023-08-30T04:58:58;0.40;;;0.40;;
13012;SDS011;22580;57.670;12.006;2023-08-30T05:01:29;0.30;;;0.30;;
13012;SDS011;22580;57.670;12.006;2023-08-30T05:03:58;0.32;;;0.32;;
13012;SDS011;22580;57.670;12.006;2023-08-30T05:06:26;0.28;;;0.28;;
13012;SDS011;22580;57.670;12.006;2023-08-30T05:08:53;0.40;;;0.40;;
13012;SDS011;22580;57.670;12.006;2023-08-30T05:11:22;0.30;;;0.30;;
13012;SDS011;22580;57.670;12.006;2023-08-30T05:13:49;0.28;;;0.28;;
13012;SDS011;22580;57.670;12.006;2023-08-30T05:16:16;0.57;;;0.47;;
13012;SDS011;22580;57.670;12.006;2023-08-30T05:18:43;0.30;;;0.30;;
13012;SDS011;22580;57.670;12.006;2023-08-30T05:21:10;0.40;;;0.40;;
13012;SDS011;22580;57.670;12.006;2023-08-30T05:23:38;0.40;;;0.40;;
13012;SDS011;22580;57.670;12.006;2023-08-30T05:26:07;0.55;;;0.30;;
13012;SDS011;22580;57.670;12.006;2023-08-30T05:28:42;0.30;;;0.30;;
13012;SDS011;22580;57.670;12.006;2023-08-30T05:31:09;0.20;;;0.20;;
13012;SDS011;22580;57.670;12.006;2023-08-30T05:33:37;0.30;;;0.30;;
13012;SDS011;22580;57.670;12.006;2023-08-30T05:36:04;0.25;;;0.25;;
13012;SDS011;22580;57.670;12.006;2023-08-30T05:38:31;0.20;;;0.20;;
13012;SDS011;22580;57.670;12.006;2023-08-30T05:40:58;0.20;;;0.20;;
13012;SDS011;22580;57.670;12.006;2023-08-30T05:43:25;0.20;;;0.20;;
13012;SDS011;22580;57.670;12.006;2023-08-30T05:45:53;0.20;;;0.20;;
13012;SDS011;22580;57.670;12.006;2023-08-30T05:48:28;0.28;;;0.28;;
13012;SDS011;22580;57.670;12.006;2023-08-30T05:50:58;0.20;;;0.20;;
13012;SDS011;22580;57.670;12.006;2023-08-30T05:53:25;0.40;;;0.30;;
13012;SDS011;22580;57.670;12.006;2023-08-30T05:55:52;0.30;;;0.30;;
13012;SDS011;22580;57.670;12.006;2023-08-30T05:58:19;0.40;;;0.40;;
13012;SDS011;22580;57.670;12.006;2023-08-30T06:00:46;0.20;;;0.20;;
13012;SDS011;22580;57.670;12.006;2023-08-30T06:03:15;0.43;;;0.43;;
13012;SDS011;22580;57.670;12.006;2023-08-30T06:05:44;0.45;;;0.45;;
13012;SDS011;22580;57.670;12.006;2023-08-30T06:08:16;0.57;;;0.57;;
13012;SDS011;22580;57.670;12.006;2023-08-30T06:10:44;0.47;;;0.47;;
13012;SDS011;22580;57.670;12.006;2023-08-30T06:13:10;0.50;;;0.40;;
13012;SDS011;22580;57.670;12.006;2023-08-30T06:15:37;0.45;;;0.45;;
13012;SDS011;22580;57.670;12.006;2023-08-30T06:18:09;0.30;;;0.30;;
13012;SDS011;22580;57.670;12.006;2023-08-30T06:20:41;0.35;;;0.35;;
13012;SDS011;22580;57.670;12.006;2023-08-30T06:23:08;1.40;;;0.52;;
13012;SDS011;22580;57.670;12.006;2023-08-30T06:25:35;1.40;;;0.63;;
13012;SDS011;22580;57.670;12.006;2023-08-30T06:28:02;0.50;;;0.50;;
13012;SDS011;22580;57.670;12.006;2023-08-30T06:30:29;0.35;;;0.35;;
13012;SDS011;22580;57.670;12.006;2023-08-30T06:32:56;0.50;;;0.50;;
13012;SDS011;22580;57.670;12.006;2023-08-30T06:35:23;0.30;;;0.30;;
13012;SDS011;22580;57.670;12.006;2023-08-30T06:37:52;0.40;;;0.40;;
13012;SDS011;22580;57.670;12.006;2023-08-30T06:40:19;0.43;;;0.43;;
13012;SDS011;22580;57.670;12.006;2023-08-30T06:42:45;0.30;;;0.30;;
13012;SDS011;22580;57.670;12.006;2023-08-30T06:45:13;0.50;;;0.50;;
13012;SDS011;22580;57.670;12.006;2023-08-30T06:47:41;0.50;;;0.50;;
13012;SDS011;22580;57.670;12.006;2023-08-30T06:50:08;0.50;;;0.50;;
13012;SDS011;22580;57.670;12.006;2023-08-30T06:52:35;0.55;;;0.50;;
13012;SDS011;22580;57.670;12.006;2023-08-30T06:55:04;0.50;;;0.50;;
13012;SDS011;22580;57.670;12.006;2023-08-30T06:57:32;0.30;;;0.30;;
13012;SDS011;22580;57.670;12.006;2023-08-30T07:00:00;0.47;;;0.40;;
13012;SDS011;22580;57.670;12.006;2023-08-30T07:02:32;0.52;;;0.52;;
13012;SDS011;22580;57.670;12.006;2023-08-30T07:05:00;0.63;;;0.63;;
13012;SDS011;22580;57.670;12.006;2023-08-30T07:07:29;0.50;;;0.50;;
13012;SDS011;22580;57.670;12.006;2023-08-30T07:09:56;1.02;;;0.77;;
13012;SDS011;22580;57.670;12.006;2023-08-30T07:12:25;0.90;;;0.90;;
13012;SDS011;22580;57.670;12.006;2023-08-30T07:14:52;0.70;;;0.70;;
13012;SDS011;22580;57.670;12.006;2023-08-30T07:17:19;0.63;;;0.63;;
13012;SDS011;22580;57.670;12.006;2023-08-30T07:19:46;0.95;;;0.80;;
13012;SDS011;22580;57.670;12.006;2023-08-30T07:22:13;0.70;;;0.70;;
13012;SDS011;22580;57.670;12.006;2023-08-30T07:24:41;1.48;;;0.80;;
13012;SDS011;22580;57.670;12.006;2023-08-30T07:27:09;1.10;;;0.70;;
13012;SDS011;22580;57.670;12.006;2023-08-30T07:29:52;1.50;;;0.95;;
13012;SDS011;22580;57.670;12.006;2023-08-30T07:32:19;1.10;;;0.90;;
13012;SDS011;22580;57.670;12.006;2023-08-30T07:34:47;1.05;;;1.02;;
13012;SDS011;22580;57.670;12.006;2023-08-30T07:37:18;1.02;;;0.80;;
13012;SDS011;22580;57.670;12.006;2023-08-30T07:39:48;1.45;;;0.90;;
13012;SDS011;22580;57.670;12.006;2023-08-30T07:42:17;0.73;;;0.73;;
13012;SDS011;22580;57.670;12.006;2023-08-30T07:44:44;0.63;;;0.50;;
13012;SDS011;22580;57.670;12.006;2023-08-30T07:47:12;0.65;;;0.65;;
13012;SDS011;22580;57.670;12.006;2023-08-30T07:49:39;0.70;;;0.70;;
13012;SDS011;22580;57.670;12.006;2023-08-30T07:52:06;0.65;;;0.60;;
13012;SDS011;22580;57.670;12.006;2023-08-30T07:54:36;1.10;;;1.00;;
13012;SDS011;22580;57.670;12.006;2023-08-30T07:57:03;0.60;;;0.60;;
13012;SDS011;22580;57.670;12.006;2023-08-30T07:59:32;0.70;;;0.70;;
13012;SDS011;22580;57.670;12.006;2023-08-30T08:02:01;0.85;;;0.85;;
13012;SDS011;22580;57.670;12.006;2023-08-30T08:04:30;0.90;;;0.90;;
13012;SDS011;22580;57.670;12.006;2023-08-30T08:06:57;0.68;;;0.68;;
13012;SDS011;22580;57.670;12.006;2023-08-30T08:09:26;0.82;;;0.80;;
13012;SDS011;22580;57.670;12.006;2023-08-30T08:11:56;0.90;;;0.90;;
13012;SDS011;22580;57.670;12.006;2023-08-30T08:14:23;0.63;;;0.63;;
13012;SDS011;22580;57.670;12.006;2023-08-30T08:16:50;0.50;;;0.50;;
13012;SDS011;22580;57.670;12.006;2023-08-30T08:19:17;0.40;;;0.40;;
13012;SDS011;22580;57.670;12.006;2023-08-30T08:21:47;0.50;;;0.50;;
13012;SDS011;22580;57.670;12.006;2023-08-30T08:24:14;0.60;;;0.60;;
13012;SDS011;22580;57.670;12.006;2023-08-30T09:49:13;0.57;;;0.35;;
13012;SDS011;22580;57.670;12.006;2023-08-30T09:51:41;0.32;;;0.32;;
13012;SDS011;22580;57.670;12.006;2023-08-30T09:54:12;0.50;;;0.50;;
13012;SDS011;22580;57.670;12.006;2023-08-30T09:56:41;0.30;;;0.30;;
13012;SDS011;22580;57.670;12.006;2023-08-30T09:59:09;0.40;;;0.40;;
13012;SDS011;22580;57.670;12.006;2023-08-30T10:01:37;0.40;;;0.40;;
13012;SDS011;22580;57.670;12.006;2023-08-30T10:04:04;0.40;;;0.40;;
13012;SDS011;22580;57.670;12.006;2023-08-30T10:06:35;0.25;;;0.25;;
13012;SDS011;22580;57.670;12.006;2023-08-30T10:09:03;0.45;;;0.45;;
13012;SDS011;22580;57.670;12.006;2023-08-30T10:11:33;0.75;;;0.57;;
13012;SDS011;22580;57.670;12.006;2023-08-30T10:14:02;0.30;;;0.30;;
13012;SDS011;22580;57.670;12.006;2023-08-30T10:16:30;0.40;;;0.40;;
13012;SDS011;22580;57.670;12.006;2023-08-30T10:19:07;0.50;;;0.50;;
13012;SDS011;22580;57.670;12.006;2023-08-30T10:21:38;0.55;;;0.55;;
13012;SDS011;22580;57.670;12.006;2023-08-30T10:24:06;0.50;;;0.50;;
13012;SDS011;22580;57.670;12.006;2023-08-30T10:26:35;0.70;;;0.70;;
13012;SDS011;22580;57.670;12.006;2023-08-30T10:29:04;0.50;;;0.50;;
13012;SDS011;22580;57.670;12.006;2023-08-30T10:31:33;0.80;;;0.80;;
13012;SDS011;22580;57.670;12.006;2023-08-30T10:34:00;0.80;;;0.80;;
13012;SDS011;22580;57.670;12.006;2023-08-30T10:36:27;0.70;;;0.70;;
13012;SDS011;22580;57.670;12.006;2023-08-30T10:38:55;0.80;;;0.80;;
13012;SDS011;22580;57.670;12.006;2023-08-30T10:41:23;0.75;;;0.75;;
13012;SDS011;22580;57.670;12.006;2023-08-30T10:43:51;0.80;;;0.80;;
13012;SDS011;22580;57.670;12.006;2023-08-30T10:49:11;0.50;;;0.50;;
13012;SDS011;22580;57.670;12.006;2023-08-30T10:51:40;0.90;;;0.90;;
13012;SDS011;22580;57.670;12.006;2023-08-30T10:54:13;0.80;;;0.80;;
13012;SDS011;22580;57.670;12.006;2023-08-30T10:56:45;0.77;;;0.77;;
13012;SDS011;22580;57.670;12.006;2023-08-30T10:59:24;0.90;;;0.90;;
13012;SDS011;22580;57.670;12.006;2023-08-30T11:01:52;0.60;;;0.60;;
13012;SDS011;22580;57.670;12.006;2023-08-30T11:04:21;0.70;;;0.70;;
13012;SDS011;22580;57.670;12.006;2023-08-30T11:06:48;0.82;;;0.80;;
13012;SDS011;22580;57.670;12.006;2023-08-30T11:09:18;1.17;;;1.08;;
13012;SDS011;22580;57.670;12.006;2023-08-30T11:11:46;0.98;;;0.98;;
13012;SDS011;22580;57.670;12.006;2023-08-30T11:14:13;1.20;;;1.20;;
13012;SDS011;22580;57.670;12.006;2023-08-30T11:16:41;1.02;;;1.02;;
13012;SDS011;22580;57.670;12.006;2023-08-30T11:19:08;1.02;;;1.02;;
13012;SDS011;22580;57.670;12.006;2023-08-30T11:21:36;0.73;;;0.73;;
13012;SDS011;22580;57.670;12.006;2023-08-30T11:24:04;0.80;;;0.80;;
13012;SDS011;22580;57.670;12.006;2023-08-30T11:26:34;1.00;;;1.00;;
13012;SDS011;22580;57.670;12.006;2023-08-30T11:29:04;0.93;;;0.93;;
13012;SDS011;22580;57.670;12.006;2023-08-30T11:31:31;0.85;;;0.82;;
13012;SDS011;22580;57.670;12.006;2023-08-30T11:33:59;0.82;;;0.82;;
13012;SDS011;22580;57.670;12.006;2023-08-30T11:36:26;0.80;;;0.80;;
13012;SDS011;22580;57.670;12.006;2023-08-30T11:38:55;0.93;;;0.93;;
13012;SDS011;22580;57.670;12.006;2023-08-30T11:41:23;0.63;;;0.63;;
13012;SDS011;22580;57.670;12.006;2023-08-30T11:43:52;0.75;;;0.75;;
13012;SDS011;22580;57.670;12.006;2023-08-30T11:46:20;1.10;;;1.00;;
13012;SDS011;22580;57.670;12.006;2023-08-30T11:48:48;1.73;;;1.00;;
13012;SDS011;22580;57.670;12.006;2023-08-30T11:51:16;0.98;;;0.98;;
13012;SDS011;22580;57.670;12.006;2023-08-30T11:53:45;1.00;;;1.00;;
13012;SDS011;22580;57.670;12.006;2023-08-30T11:56:12;1.00;;;1.00;;
13012;SDS011;22580;57.670;12.006;2023-08-30T11:58:41;1.05;;;0.90;;
13012;SDS011;22580;57.670;12.006;2023-08-30T12:01:10;1.00;;;1.00;;
13012;SDS011;22580;57.670;12.006;2023-08-30T12:03:39;1.00;;;1.00;;
13012;SDS011;22580;57.670;12.006;2023-08-30T12:06:09;1.00;;;1.00;;
13012;SDS011;22580;57.670;12.006;2023-08-30T12:08:36;1.20;;;1.10;;
13012;SDS011;22580;57.670;12.006;2023-08-30T12:11:03;1.10;;;1.10;;
13012;SDS011;22580;57.670;12.006;2023-08-30T12:13:31;1.10;;;1.00;;
13012;SDS011;22580;57.670;12.006;2023-08-30T12:15:59;0.95;;;0.95;;
13012;SDS011;22580;57.670;12.006;2023-08-30T12:18:31;2.15;;;1.13;;
13012;SDS011;22580;57.670;12.006;2023-08-30T12:20:59;1.15;;;1.05;;
13012;SDS011;22580;57.670;12.006;2023-08-30T12:23:28;1.20;;;1.10;;
13012;SDS011;22580;57.670;12.006;2023-08-30T12:25:59;0.80;;;0.80;;
13012;SDS011;22580;57.670;12.006;2023-08-30T12:28:28;0.73;;;0.73;;
13012;SDS011;22580;57.670;12.006;2023-08-30T12:30:55;1.40;;;1.30;;
13012;SDS011;22580;57.670;12.006;2023-08-30T12:33:23;1.17;;;1.08;;
13012;SDS011;22580;57.670;12.006;2023-08-30T12:35:53;1.58;;;1.48;;
13012;SDS011;22580;57.670;12.006;2023-08-30T12:38:20;1.00;;;1.00;;
13012;SDS011;22580;57.670;12.006;2023-08-30T12:40:47;1.40;;;1.30;;
13012;SDS011;22580;57.670;12.006;2023-08-30T12:43:15;1.27;;;1.13;;
13012;SDS011;22580;57.670;12.006;2023-08-30T12:45:43;0.82;;;0.82;;
13012;SDS011;22580;57.670;12.006;2023-08-30T12:48:11;0.80;;;0.80;;
13012;SDS011;22580;57.670;12.006;2023-08-30T12:50:40;0.75;;;0.75;;
13012;SDS011;22580;57.670;12.006;2023-08-30T12:53:09;0.80;;;0.80;;
13012;SDS011;22580;57.670;12.006;2023-08-30T12:55:37;0.88;;;0.88;;
13012;SDS011;22580;57.670;12.006;2023-08-30T12:58:05;0.68;;;0.68;;
13012;SDS011;22580;57.670;12.006;2023-08-30T13:00:33;1.08;;;0.90;;
13012;SDS011;22580;57.670;12.006;2023-08-30T13:03:01;0.90;;;0.90;;
13012;SDS011;22580;57.670;12.006;2023-08-30T13:05:28;0.98;;;0.90;;
13012;SDS011;22580;57.670;12.006;2023-08-30T13:07:57;0.70;;;0.70;;
13012;SDS011;22580;57.670;12.006;2023-08-30T13:10:27;0.90;;;0.90;;
13012;SDS011;22580;57.670;12.006;2023-08-30T13:12:54;0.75;;;0.75;;
13012;SDS011;22580;57.670;12.006;2023-08-30T13:15:22;1.20;;;1.00;;
13012;SDS011;22580;57.670;12.006;2023-08-30T13:17:49;0.90;;;0.90;;
13012;SDS011;22580;57.670;12.006;2023-08-30T13:20:16;0.80;;;0.80;;
13012;SDS011;22580;57.670;12.006;2023-08-30T13:22:43;0.60;;;0.60;;
13012;SDS011;22580;57.670;12.006;2023-08-30T13:25:10;1.05;;;1.00;;
13012;SDS011;22580;57.670;12.006;2023-08-30T13:27:40;1.20;;;1.10;;
13012;SDS011;22580;57.670;12.006;2023-08-30T13:30:08;0.88;;;0.88;;
13012;SDS011;22580;57.670;12.006;2023-08-30T13:32:36;1.00;;;1.00;;
13012;SDS011;22580;57.670;12.006;2023-08-30T13:35:03;1.80;;;1.00;;
13012;SDS011;22580;57.670;12.006;2023-08-30T13:37:30;1.00;;;1.00;;
13012;SDS011;22580;57.670;12.006;2023-08-30T13:39:57;1.42;;;1.08;;
13012;SDS011;22580;57.670;12.006;2023-08-30T13:42:24;0.90;;;0.90;;
13012;SDS011;22580;57.670;12.006;2023-08-30T13:44:53;1.10;;;1.00;;
13012;SDS011;22580;57.670;12.006;2023-08-30T13:47:20;0.90;;;0.90;;
13012;SDS011;22580;57.670;12.006;2023-08-30T13:49:47;0.75;;;0.75;;
13012;SDS011;22580;57.670;12.006;2023-08-30T13:52:14;0.68;;;0.68;;
13012;SDS011;22580;57.670;12.006;2023-08-30T13:54:41;0.90;;;0.90;;
13012;SDS011;22580;57.670;12.006;2023-08-30T13:57:08;0.80;;;0.80;;
13012;SDS011;22580;57.670;12.006;2023-08-30T13:59:43;0.80;;;0.80;;
13012;SDS011;22580;57.670;12.006;2023-08-30T14:02:13;0.68;;;0.68;;
13012;SDS011;22580;57.670;12.006;2023-08-30T14:04:39;0.82;;;0.82;;
13012;SDS011;22580;57.670;12.006;2023-08-30T14:07:06;1.30;;;0.80;;
13012;SDS011;22580;57.670;12.006;2023-08-30T14:09:34;0.75;;;0.75;;
13012;SDS011;22580;57.670;12.006;2023-08-30T14:12:01;0.90;;;0.90;;
13012;SDS011;22580;57.670;12.006;2023-08-30T14:14:29;0.80;;;0.80;;
13012;SDS011;22580;57.670;12.006;2023-08-30T14:16:56;0.82;;;0.82;;
13012;SDS011;22580;57.670;12.006;2023-08-30T14:19:25;0.90;;;0.90;;
13012;SDS011;22580;57.670;12.006;2023-08-30T14:21:52;0.82;;;0.80;;
13012;SDS011;22580;57.670;12.006;2023-08-30T14:24:21;0.70;;;0.70;;
13012;SDS011;22580;57.670;12.006;2023-08-30T14:26:48;0.60;;;0.60;;
13012;SDS011;22580;57.670;12.006;2023-08-30T14:29:15;0.60;;;0.60;;
13012;SDS011;22580;57.670;12.006;2023-08-30T14:31:46;0.82;;;0.82;;
13012;SDS011;22580;57.670;12.006;2023-08-30T14:34:13;0.75;;;0.75;;
13012;SDS011;22580;57.670;12.006;2023-08-30T14:36:41;0.80;;;0.80;;
13012;SDS011;22580;57.670;12.006;2023-08-30T14:39:08;0.85;;;0.85;;
13012;SDS011;22580;57.670;12.006;2023-08-30T14:41:37;1.33;;;0.90;;
13012;SDS011;22580;57.670;12.006;2023-08-30T14:44:04;0.90;;;0.90;;
13012;SDS011;22580;57.670;12.006;2023-08-30T14:46:32;0.82;;;0.82;;
13012;SDS011;22580;57.670;12.006;2023-08-30T14:48:59;0.90;;;0.90;;
13012;SDS011;22580;57.670;12.006;2023-08-30T14:51:27;0.90;;;0.90;;
13012;SDS011;22580;57.670;12.006;2023-08-30T14:53:55;1.10;;;1.10;;
13012;SDS011;22580;57.670;12.006;2023-08-30T14:56:22;1.40;;;1.30;;
13012;SDS011;22580;57.670;12.006;2023-08-30T14:58:49;1.15;;;1.02;;
13012;SDS011;22580;57.670;12.006;2023-08-30T15:01:17;0.85;;;0.85;;
13012;SDS011;22580;57.670;12.006;2023-08-30T15:03:43;0.90;;;0.90;;
13012;SDS011;22580;57.670;12.006;2023-08-30T15:06:11;0.80;;;0.80;;
13012;SDS011;22580;57.670;12.006;2023-08-30T15:08:37;1.00;;;1.00;;
13012;SDS011;22580;57.670;12.006;2023-08-30T15:11:06;0.80;;;0.80;;
13012;SDS011;22580;57.670;12.006;2023-08-30T15:13:34;0.85;;;0.85;;
13012;SDS011;22580;57.670;12.006;2023-08-30T15:16:03;0.70;;;0.70;;
13012;SDS011;22580;57.670;12.006;2023-08-30T15:18:32;0.60;;;0.60;;
13012;SDS011;22580;57.670;12.006;2023-08-30T15:20:59;0.60;;;0.60;;
13012;SDS011;22580;57.670;12.006;2023-08-30T15:23:26;0.40;;;0.40;;
13012;SDS011;22580;57.670;12.006;2023-08-30T15:25:54;0.40;;;0.40;;
13012;SDS011;22580;57.670;12.006;2023-08-30T15:28:22;0.38;;;0.38;;
13012;SDS011;22580;57.670;12.006;2023-08-30T15:30:50;0.40;;;0.40;;
13012;SDS011;22580;57.670;12.006;2023-08-30T15:33:17;0.40;;;0.40;;
13012;SDS011;22580;57.670;12.006;2023-08-30T15:35:44;0.50;;;0.50;;
13012;SDS011;22580;57.670;12.006;2023-08-30T15:38:11;0.40;;;0.40;;
13012;SDS011;22580;57.670;12.006;2023-08-30T15:40:39;0.30;;;0.30;;
13012;SDS011;22580;57.670;12.006;2023-08-30T15:43:06;0.70;;;0.70;;
13012;SDS011;22580;57.670;12.006;2023-08-30T15:45:34;0.40;;;0.40;;
13012;SDS011;22580;57.670;12.006;2023-08-30T15:48:01;0.40;;;0.40;;
13012;SDS011;22580;57.670;12.006;2023-08-30T15:50:28;0.40;;;0.40;;
13012;SDS011;22580;57.670;12.006;2023-08-30T15:52:55;0.40;;;0.40;;
13012;SDS011;22580;57.670;12.006;2023-08-30T15:55:22;0.32;;;0.32;;
13012;SDS011;22580;57.670;12.006;2023-08-30T15:57:51;0.40;;;0.40;;
13012;SDS011;22580;57.670;12.006;2023-08-30T16:00:18;0.45;;;0.45;;
13012;SDS011;22580;57.670;12.006;2023-08-30T16:02:47;0.40;;;0.40;;
13012;SDS011;22580;57.670;12.006;2023-08-30T16:05:16;0.38;;;0.38;;